Terminal Aerodrome Forecast
Issued by NWS San Angelo, TX

Home | Current Version | Previous Version | Text Only | Print | Product List | Glossary On
Versions: 1 2 3 4 5 6 7 8 9 10 11 12 13 14 15 16 17
000
FTUS44 KSJT 270628 RRA
TAFABI
TAF
KABI 270628Z 2706/2806 17013KT P6SM BKN050
      TEMPO 2706/2708 VRB25G35KT 3SM TSRA OVC025CB
     FM271300 19011KT P6SM FEW250
     FM271500 23013G20KT P6SM SKC
     FM280100 18007KT P6SM SKC=

USA.gov is the U.S. government's official web portal to all federal, state and local government web resources and services.